createdAt,value
2023-05-11T00:02:05.893Z,14.10
2023-05-11T00:04:35.521Z,14.10
2023-05-11T00:07:03.633Z,14.00
2023-05-11T00:09:31.795Z,14.00
2023-05-11T00:12:00.003Z,14.00
2023-05-11T00:14:28.101Z,14.00
2023-05-11T00:16:56.185Z,14.00
2023-05-11T00:19:24.465Z,14.00
2023-05-11T00:21:53.897Z,14.00
2023-05-11T00:24:22.037Z,14.00
2023-05-11T00:26:50.117Z,14.00
2023-05-11T00:29:18.466Z,14.00
2023-05-11T00:31:48.004Z,14.00
2023-05-11T00:34:16.953Z,13.90
2023-05-11T00:36:45.820Z,13.90
2023-05-11T00:39:15.410Z,13.90
2023-05-11T00:41:43.507Z,13.90
2023-05-11T00:44:11.964Z,13.90
2023-05-11T00:46:40.586Z,13.90
2023-05-11T00:49:09.644Z,13.90
2023-05-11T00:51:37.917Z,13.90
2023-05-11T00:54:09.173Z,13.90
2023-05-11T00:56:38.746Z,13.90
2023-05-11T00:59:06.870Z,13.90
2023-05-11T01:01:35.799Z,13.90
2023-05-11T01:04:04.594Z,13.90
2023-05-11T01:06:46.576Z,13.90
2023-05-11T01:09:33.298Z,13.90
2023-05-11T01:12:21.662Z,13.90
2023-05-11T01:15:02.290Z,13.80
2023-05-11T01:17:45.987Z,13.80
2023-05-11T01:20:21.592Z,13.80
2023-05-11T01:23:26.115Z,13.80
2023-05-11T01:26:22.181Z,13.80
2023-05-11T01:29:26.656Z,13.80
2023-05-11T01:31:59.388Z,13.80
2023-05-11T01:34:34.352Z,13.80
2023-05-11T01:37:11.916Z,13.80
2023-05-11T01:39:49.815Z,13.80
2023-05-11T01:42:26.002Z,13.80
2023-05-11T01:44:58.171Z,13.80
2023-05-11T01:47:31.169Z,13.80
2023-05-11T01:50:03.752Z,13.80
2023-05-11T01:52:33.486Z,13.80
2023-05-11T01:55:06.268Z,13.80
2023-05-11T01:57:37.997Z,13.80
2023-05-11T02:00:09.710Z,13.80
2023-05-11T02:02:48.957Z,13.70
2023-05-11T02:05:23.277Z,13.80
2023-05-11T02:07:55.174Z,13.70
2023-05-11T02:10:27.825Z,13.70
2023-05-11T02:12:57.391Z,13.70
2023-05-11T02:15:27.815Z,13.70
2023-05-11T02:17:58.895Z,13.70
2023-05-11T02:20:28.099Z,13.70
2023-05-11T02:22:58.105Z,13.70
2023-05-11T02:25:27.783Z,13.70
2023-05-11T02:27:55.976Z,13.70
2023-05-11T02:30:26.381Z,13.60
2023-05-11T02:33:01.530Z,13.60
2023-05-11T02:35:34.443Z,13.60
2023-05-11T02:38:05.037Z,13.60
2023-05-11T02:40:43.331Z,13.60
2023-05-11T02:43:14.603Z,13.60
2023-05-11T02:45:54.758Z,13.60
2023-05-11T02:48:29.732Z,13.60
2023-05-11T02:51:03.086Z,13.50
2023-05-11T02:53:41.106Z,13.50
2023-05-11T02:56:10.169Z,13.50
2023-05-11T02:58:39.200Z,13.50
2023-05-11T03:01:34.817Z,13.50
2023-05-11T03:04:07.129Z,13.50
2023-05-11T03:06:36.709Z,13.50
2023-05-11T03:09:09.966Z,13.50
2023-05-11T03:11:44.978Z,13.40
2023-05-11T03:14:14.077Z,13.40
2023-05-11T03:16:43.919Z,13.40
2023-05-11T03:19:15.198Z,13.40
2023-05-11T03:21:44.185Z,13.40
2023-05-11T03:24:14.319Z,13.40
2023-05-11T03:26:46.060Z,13.40
2023-05-11T03:29:16.756Z,13.40
2023-05-11T03:31:45.258Z,13.40
2023-05-11T03:34:14.938Z,13.30
2023-05-11T03:36:49.929Z,13.30
2023-05-11T03:39:20.267Z,13.30
2023-05-11T03:41:53.088Z,13.30
2023-05-11T03:44:24.822Z,13.30
2023-05-11T03:46:56.634Z,13.30
2023-05-11T03:49:26.955Z,13.30
2023-05-11T03:51:55.885Z,13.30
2023-05-11T03:54:26.102Z,13.30
2023-05-11T03:56:54.335Z,13.20
2023-05-11T03:59:23.547Z,13.20
2023-05-11T04:01:54.009Z,13.30
2023-05-11T04:04:28.774Z,13.30
2023-05-11T04:06:58.582Z,13.30
2023-05-11T04:09:27.867Z,13.30
2023-05-11T04:11:56.022Z,13.30
2023-05-11T04:14:24.166Z,13.30
2023-05-11T04:16:52.307Z,13.30
2023-05-11T04:19:20.403Z,13.30
2023-05-11T04:21:48.586Z,13.30
2023-05-11T04:24:18.092Z,13.30
2023-05-11T04:26:47.097Z,13.30
2023-05-11T04:29:15.383Z,13.30
2023-05-11T04:31:43.567Z,13.30
2023-05-11T04:34:11.859Z,13.30
2023-05-11T04:36:39.976Z,13.40
2023-05-11T04:39:08.675Z,13.40
2023-05-11T04:41:40.618Z,13.40
2023-05-11T04:44:09.740Z,13.40
2023-05-11T04:46:38.468Z,13.40
2023-05-11T04:49:07.392Z,13.40
2023-05-11T04:51:39.257Z,13.40
2023-05-11T04:54:07.809Z,13.40
2023-05-11T04:56:40.377Z,13.30
2023-05-11T04:59:10.134Z,13.40
2023-05-11T05:01:38.377Z,13.30
2023-05-11T05:04:06.800Z,13.40
2023-05-11T05:06:35.052Z,13.40
2023-05-11T05:09:04.684Z,13.40
2023-05-11T05:11:32.844Z,13.50
2023-05-11T05:14:01.002Z,13.50
2023-05-11T05:16:32.476Z,13.50
2023-05-11T05:19:01.037Z,13.50
2023-05-11T05:21:29.447Z,13.50
2023-05-11T05:23:58.101Z,13.50
2023-05-11T05:26:27.471Z,13.60
2023-05-11T05:28:55.732Z,13.50
2023-05-11T05:31:24.989Z,13.60
2023-05-11T05:33:55.530Z,13.60
2023-05-11T05:36:23.910Z,13.70
2023-05-11T05:38:52.032Z,13.70
2023-05-11T05:41:22.248Z,13.80
2023-05-11T05:43:51.511Z,13.80
2023-05-11T05:46:19.698Z,13.90
2023-05-11T05:48:48.181Z,13.90
2023-05-11T05:51:17.704Z,13.90
2023-05-11T05:53:46.500Z,14.00
2023-05-11T05:56:14.612Z,14.00
2023-05-11T05:58:43.299Z,13.90
2023-05-11T06:01:12.341Z,13.90
2023-05-11T06:03:41.000Z,13.90
2023-05-11T06:06:09.345Z,13.90
2023-05-11T06:08:38.913Z,13.80
2023-05-11T06:11:07.215Z,13.80
2023-05-11T06:13:35.432Z,13.80
2023-05-11T06:16:04.078Z,13.80
2023-05-11T06:18:34.892Z,13.90
2023-05-11T06:21:05.063Z,13.90
2023-05-11T06:23:34.242Z,14.00
2023-05-11T06:26:04.124Z,14.10
2023-05-11T06:28:34.033Z,14.30
2023-05-11T06:31:06.032Z,14.30
2023-05-11T06:33:36.954Z,14.40
2023-05-11T06:36:10.497Z,14.40
2023-05-11T06:38:38.835Z,14.40
2023-05-11T06:41:11.508Z,14.40
2023-05-11T06:43:39.836Z,14.40
2023-05-11T06:46:19.686Z,14.50
2023-05-11T06:48:47.926Z,14.50
2023-05-11T06:51:16.193Z,14.40
2023-05-11T06:53:45.800Z,14.30
2023-05-11T06:56:15.253Z,14.30
2023-05-11T06:58:43.431Z,14.30
2023-05-11T07:01:12.816Z,14.40
2023-05-11T07:03:40.952Z,14.30
2023-05-11T07:06:09.470Z,14.30
2023-05-11T07:08:37.715Z,14.30
2023-05-11T07:11:06.479Z,14.30
2023-05-11T07:13:36.013Z,14.30
2023-05-11T07:16:04.314Z,14.20
2023-05-11T07:18:32.555Z,14.20
2023-05-11T07:21:00.653Z,14.10
2023-05-11T07:23:28.937Z,14.10
2023-05-11T07:25:58.064Z,14.20
2023-05-11T07:28:26.419Z,14.10
2023-05-11T07:30:55.909Z,14.10
2023-05-11T07:33:24.044Z,14.10
2023-05-11T07:35:53.175Z,14.20
2023-05-11T07:38:21.514Z,14.20
2023-05-11T07:40:49.695Z,14.30
2023-05-11T07:43:17.794Z,14.30
2023-05-11T07:45:45.910Z,14.40
2023-05-11T07:48:15.362Z,14.40
2023-05-11T07:50:43.580Z,14.50
2023-05-11T07:53:11.701Z,14.60
2023-05-11T07:55:40.051Z,14.60
2023-05-11T07:58:08.378Z,14.70
2023-05-11T08:00:36.680Z,14.70
2023-05-11T08:03:05.219Z,14.70
2023-05-11T08:05:37.467Z,14.80
2023-05-11T08:08:06.401Z,14.70
2023-05-11T08:10:34.612Z,14.70
2023-05-11T08:13:02.755Z,14.80
2023-05-11T08:15:31.298Z,14.80
2023-05-11T08:17:59.442Z,14.70
2023-05-11T08:20:27.861Z,14.70
2023-05-11T08:22:57.899Z,14.70
2023-05-11T08:25:26.045Z,14.70
2023-05-11T08:27:54.103Z,14.80
2023-05-11T08:30:22.310Z,14.80
2023-05-11T08:32:58.357Z,14.90
2023-05-11T08:35:27.514Z,15.00
2023-05-11T08:37:56.999Z,15.10
2023-05-11T08:40:28.730Z,15.10
2023-05-11T08:42:57.759Z,15.20
2023-05-11T08:45:27.726Z,15.20
2023-05-11T08:47:56.743Z,15.30
2023-05-11T08:50:25.380Z,15.30
2023-05-11T08:52:53.525Z,15.30
2023-05-11T08:55:27.112Z,15.30
2023-05-11T08:57:57.509Z,15.20
2023-05-11T09:00:26.333Z,15.10
2023-05-11T09:02:55.490Z,15.10
2023-05-11T09:05:25.844Z,15.10
2023-05-11T09:08:03.048Z,15.10
2023-05-11T09:10:32.905Z,15.10
2023-05-11T09:13:01.026Z,15.10
2023-05-11T09:15:29.225Z,15.10
2023-05-11T09:17:57.665Z,15.10
2023-05-11T09:20:29.474Z,15.10
2023-05-11T09:22:58.276Z,15.00
2023-05-11T09:25:30.489Z,15.10
2023-05-11T09:28:01.533Z,15.10
2023-05-11T09:30:29.693Z,15.20
2023-05-11T09:32:59.965Z,15.30
2023-05-11T09:35:30.297Z,15.20
2023-05-11T09:38:05.137Z,15.30
2023-05-11T09:40:37.610Z,15.30
2023-05-11T09:43:23.540Z,15.30
2023-05-11T09:45:53.778Z,15.20
2023-05-11T09:48:31.461Z,15.20
2023-05-11T09:51:06.059Z,15.20
2023-05-11T09:53:43.050Z,15.20
2023-05-11T09:56:12.533Z,15.20
2023-05-11T09:58:54.306Z,15.20
2023-05-11T10:01:32.150Z,15.20
2023-05-11T10:04:20.978Z,15.30
2023-05-11T10:06:52.863Z,15.30
2023-05-11T10:09:25.842Z,15.40
2023-05-11T10:11:57.209Z,15.50
2023-05-11T10:14:29.305Z,15.50
2023-05-11T10:17:02.276Z,15.40
2023-05-11T10:19:30.922Z,15.40
2023-05-11T10:22:00.424Z,15.40
2023-05-11T10:24:29.110Z,15.50
2023-05-11T10:26:58.993Z,15.50
2023-05-11T10:29:30.011Z,15.60
2023-05-11T10:32:00.063Z,15.50
2023-05-11T10:34:30.139Z,15.60
2023-05-11T10:37:04.432Z,15.40
2023-05-11T10:39:33.254Z,15.30
2023-05-11T10:42:37.332Z,15.20
2023-05-11T10:45:23.144Z,15.00
2023-05-11T10:48:42.615Z,14.90
2023-05-11T10:51:55.863Z,14.90
2023-05-11T10:54:41.512Z,14.90
2023-05-11T10:57:22.035Z,14.90
2023-05-11T11:00:30.944Z,14.90
2023-05-11T11:03:12.364Z,15.00
2023-05-11T11:05:43.730Z,15.10
2023-05-11T11:08:12.550Z,15.20
2023-05-11T11:10:45.968Z,15.20
2023-05-11T11:13:16.787Z,15.20
2023-05-11T11:16:10.152Z,15.20
2023-05-11T11:18:39.931Z,15.20
2023-05-11T11:21:08.848Z,15.30
2023-05-11T11:23:50.948Z,15.40
2023-05-11T11:26:50.410Z,15.50
2023-05-11T11:29:18.672Z,15.60
2023-05-11T11:31:47.413Z,15.70
2023-05-11T11:34:37.460Z,15.70
2023-05-11T11:37:08.753Z,15.70
2023-05-11T11:40:13.033Z,15.80
2023-05-11T11:42:44.218Z,15.80
2023-05-11T11:45:33.670Z,15.80
2023-05-11T11:48:16.633Z,15.80
2023-05-11T11:50:48.779Z,15.80
2023-05-11T11:54:09.628Z,15.70
2023-05-11T11:56:47.528Z,15.60
2023-05-11T11:59:16.315Z,15.50
2023-05-11T12:01:46.385Z,15.50
2023-05-11T12:04:50.498Z,15.30
2023-05-11T12:07:22.495Z,15.20
2023-05-11T12:09:52.796Z,15.20
2023-05-11T12:12:22.487Z,15.10
2023-05-11T12:14:50.759Z,15.10
2023-05-11T12:17:27.994Z,15.20
2023-05-11T12:19:57.111Z,15.20
2023-05-11T12:22:27.190Z,15.20
2023-05-11T12:25:00.518Z,15.20
2023-05-11T12:27:29.395Z,15.30
2023-05-11T12:29:58.568Z,15.30
2023-05-11T12:32:28.858Z,15.30
2023-05-11T12:35:02.299Z,15.40
2023-05-11T12:37:32.802Z,15.40
2023-05-11T12:40:01.445Z,15.50
2023-05-11T12:42:29.729Z,15.60
2023-05-11T12:44:58.178Z,15.60
2023-05-11T12:47:26.503Z,15.70
2023-05-11T12:49:54.724Z,15.80
2023-05-11T12:52:25.466Z,15.80
2023-05-11T12:55:00.223Z,15.80
2023-05-11T12:57:30.998Z,15.80
2023-05-11T13:00:12.512Z,15.70
2023-05-11T13:02:51.047Z,15.60
2023-05-11T13:05:24.606Z,15.50
2023-05-11T13:08:00.071Z,15.40
2023-05-11T13:10:29.924Z,15.30
2023-05-11T13:12:59.178Z,15.20
2023-05-11T13:15:28.834Z,15.10
2023-05-11T13:17:59.073Z,15.10
2023-05-11T13:20:30.147Z,15.00
2023-05-11T13:23:07.885Z,15.00
2023-05-11T13:25:54.422Z,14.90
2023-05-11T13:28:25.362Z,14.90
2023-05-11T13:31:01.137Z,15.00
2023-05-11T13:33:29.724Z,15.10
2023-05-11T13:35:57.945Z,15.20
2023-05-11T13:38:26.157Z,15.30
2023-05-11T13:40:55.587Z,15.50
2023-05-11T13:43:23.745Z,15.50
2023-05-11T13:45:52.085Z,15.50
2023-05-11T13:48:20.327Z,15.70
2023-05-11T13:50:48.508Z,15.70
2023-05-11T13:53:16.663Z,15.70
2023-05-11T13:55:44.930Z,15.50
2023-05-11T13:58:14.448Z,15.40
2023-05-11T14:00:46.228Z,15.30
2023-05-11T14:03:20.372Z,15.30
2023-05-11T14:05:50.079Z,15.30
2023-05-11T14:08:18.316Z,15.20
2023-05-11T14:10:46.585Z,15.20
2023-05-11T14:13:16.163Z,15.20
2023-05-11T14:15:44.385Z,15.20
2023-05-11T14:18:13.061Z,15.30
2023-05-11T14:20:42.213Z,15.40
2023-05-11T14:23:10.450Z,15.40
2023-05-11T14:25:38.599Z,15.40
2023-05-11T14:28:07.349Z,15.40
2023-05-11T14:30:36.957Z,15.40
2023-05-11T14:33:05.496Z,15.40
2023-05-11T14:35:34.507Z,15.40
2023-05-11T14:38:04.459Z,15.40
2023-05-11T14:40:32.676Z,15.40
2023-05-11T14:43:01.390Z,15.30
2023-05-11T14:45:29.679Z,15.30
2023-05-11T14:47:59.347Z,15.20
2023-05-11T14:50:29.066Z,15.10
2023-05-11T14:52:57.214Z,15.00
2023-05-11T14:55:25.598Z,15.00
2023-05-11T14:57:56.359Z,15.00
2023-05-11T15:00:24.793Z,15.00
2023-05-11T15:02:53.648Z,15.00
2023-05-11T15:05:23.362Z,15.10
2023-05-11T15:07:51.589Z,15.00
2023-05-11T15:10:19.775Z,15.00
2023-05-11T15:12:47.870Z,15.00
2023-05-11T15:15:16.091Z,15.00
2023-05-11T15:17:44.454Z,15.00
2023-05-11T15:20:12.941Z,14.90
2023-05-11T15:22:42.390Z,14.90
2023-05-11T15:25:11.403Z,14.90
2023-05-11T15:27:39.566Z,14.80
2023-05-11T15:30:09.329Z,14.80
2023-05-11T15:32:37.881Z,14.70
2023-05-11T15:35:07.356Z,14.70
2023-05-11T15:37:35.603Z,14.70
2023-05-11T15:40:08.500Z,14.60
2023-05-11T15:42:36.683Z,14.60
2023-05-11T15:45:06.006Z,14.40
2023-05-11T15:47:34.165Z,14.40
2023-05-11T15:50:02.435Z,14.40
2023-05-11T15:52:30.564Z,14.40
2023-05-11T15:54:58.760Z,14.30
2023-05-11T15:57:28.309Z,14.40
2023-05-11T15:59:56.468Z,14.40
2023-05-11T16:02:24.616Z,14.40
2023-05-11T16:04:52.836Z,14.30
2023-05-11T16:07:21.270Z,14.30
2023-05-11T16:09:49.397Z,14.30
2023-05-11T16:12:17.683Z,14.20
2023-05-11T16:14:47.466Z,14.20
2023-05-11T16:17:15.821Z,14.20
2023-05-11T16:19:44.169Z,14.10
2023-05-11T16:22:12.371Z,14.10
2023-05-11T16:24:41.019Z,14.10
2023-05-11T16:27:09.247Z,14.20
2023-05-11T16:29:37.711Z,14.10
2023-05-11T16:32:07.675Z,14.10
2023-05-11T16:34:36.244Z,14.10
2023-05-11T16:37:04.670Z,14.10
2023-05-11T16:39:32.860Z,14.10
2023-05-11T16:42:00.987Z,14.10
2023-05-11T16:44:29.181Z,14.10
2023-05-11T16:46:58.243Z,14.10
2023-05-11T16:49:28.148Z,14.10
2023-05-11T16:51:56.298Z,14.10
2023-05-11T16:54:26.219Z,14.10
2023-05-11T16:56:55.085Z,14.10
2023-05-11T16:59:23.244Z,14.10
2023-05-11T17:01:51.413Z,14.10
2023-05-11T17:04:20.031Z,14.10
2023-05-11T17:06:49.650Z,14.10
2023-05-11T17:09:17.889Z,14.10
2023-05-11T17:11:46.152Z,14.10
2023-05-11T17:14:14.406Z,14.20
2023-05-11T17:16:42.876Z,14.10
2023-05-11T17:19:11.692Z,14.10
2023-05-11T17:21:40.406Z,14.10
2023-05-11T17:24:10.213Z,14.10
2023-05-11T17:26:47.080Z,14.10
2023-05-11T17:29:16.397Z,14.10
2023-05-11T17:31:46.488Z,14.10
2023-05-11T17:34:15.064Z,14.10
2023-05-11T17:36:43.593Z,14.10
2023-05-11T17:39:13.754Z,14.00
2023-05-11T17:41:42.066Z,14.00
2023-05-11T17:44:10.620Z,14.00
2023-05-11T17:46:39.141Z,13.90
2023-05-11T17:49:08.721Z,13.90
2023-05-11T17:51:37.239Z,13.80
2023-05-11T17:54:05.445Z,13.70
2023-05-11T17:56:35.092Z,13.70
2023-05-11T17:59:03.367Z,13.70
2023-05-11T18:01:31.858Z,13.60
2023-05-11T18:04:01.902Z,13.60
2023-05-11T18:06:30.769Z,13.60
2023-05-11T18:09:00.076Z,13.50
2023-05-11T18:11:29.463Z,13.50
2023-05-11T18:13:59.028Z,13.50
2023-05-11T18:16:27.291Z,13.40
2023-05-11T18:18:56.263Z,13.40
2023-05-11T18:21:26.688Z,13.40
2023-05-11T18:23:54.919Z,13.30
2023-05-11T18:26:23.129Z,13.30
2023-05-11T18:28:51.330Z,13.30
2023-05-11T18:31:20.921Z,13.30
2023-05-11T18:33:49.092Z,13.20
2023-05-11T18:36:17.300Z,13.20
2023-05-11T18:38:45.655Z,13.20
2023-05-11T18:41:13.977Z,13.20
2023-05-11T18:43:43.650Z,13.20
2023-05-11T18:46:12.450Z,13.10
2023-05-11T18:48:42.244Z,13.10
2023-05-11T18:51:10.726Z,13.10
2023-05-11T18:53:38.917Z,13.10
2023-05-11T18:56:07.112Z,13.10
2023-05-11T18:58:35.267Z,13.10
2023-05-11T19:01:03.874Z,13.00
2023-05-11T19:03:32.862Z,13.00
2023-05-11T19:06:02.621Z,13.00
2023-05-11T19:08:31.114Z,13.00
2023-05-11T19:10:59.292Z,12.90
2023-05-11T19:13:27.677Z,12.90
2023-05-11T19:15:55.959Z,12.90
2023-05-11T19:18:25.416Z,12.90
2023-05-11T19:20:53.590Z,12.90
2023-05-11T19:23:23.226Z,12.90
2023-05-11T19:25:51.578Z,12.80
2023-05-11T19:28:19.801Z,12.80
2023-05-11T19:30:48.008Z,12.80
2023-05-11T19:33:16.215Z,12.80
2023-05-11T19:35:44.446Z,12.80
2023-05-11T19:38:12.643Z,12.80
2023-05-11T19:40:46.439Z,12.80
2023-05-11T19:43:15.035Z,12.80
2023-05-11T19:45:43.618Z,12.80
2023-05-11T19:48:12.520Z,12.80
2023-05-11T19:50:41.212Z,12.70
2023-05-11T19:53:09.494Z,12.70
2023-05-11T19:55:37.762Z,12.70
2023-05-11T19:58:07.307Z,12.70
2023-05-11T20:00:35.999Z,12.70
2023-05-11T20:03:04.932Z,12.70
2023-05-11T20:05:33.366Z,12.70
2023-05-11T20:08:01.756Z,12.70
2023-05-11T20:10:30.120Z,12.70
2023-05-11T20:12:59.428Z,12.70
2023-05-11T20:15:28.942Z,12.60
2023-05-11T20:17:57.185Z,12.60
2023-05-11T20:20:25.519Z,12.60
2023-05-11T20:22:53.685Z,12.60
2023-05-11T20:25:22.612Z,12.60
2023-05-11T20:27:52.148Z,12.60
2023-05-11T20:30:20.741Z,12.60
2023-05-11T20:35:22.248Z,12.60
2023-05-11T20:37:50.505Z,12.60
2023-05-11T20:40:19.141Z,12.60
2023-05-11T20:42:47.474Z,12.60
2023-05-11T20:45:16.474Z,12.60
2023-05-11T20:47:44.890Z,12.50
2023-05-11T20:50:17.694Z,12.50
2023-05-11T20:52:46.150Z,12.50
2023-05-11T20:55:14.265Z,12.50
2023-05-11T20:57:42.442Z,12.50
2023-05-11T21:00:15.559Z,12.50
2023-05-11T21:02:43.766Z,12.50
2023-05-11T21:05:11.963Z,12.40
2023-05-11T21:07:41.745Z,12.40
2023-05-11T21:10:13.121Z,12.40
2023-05-11T21:12:41.759Z,12.40
2023-05-11T21:15:11.324Z,12.40
2023-05-11T21:17:39.605Z,12.40
2023-05-11T21:20:09.769Z,12.40
2023-05-11T21:22:38.333Z,12.40
2023-05-11T21:25:08.661Z,12.40
2023-05-11T21:27:37.481Z,12.40
2023-05-11T21:30:07.389Z,12.40
2023-05-11T21:32:35.533Z,12.40
2023-05-11T21:35:03.950Z,12.40
2023-05-11T21:37:33.611Z,12.40
2023-05-11T21:40:01.968Z,12.30
2023-05-11T21:42:34.612Z,12.40
2023-05-11T21:45:03.109Z,12.30
2023-05-11T21:47:31.321Z,12.30
2023-05-11T21:49:59.768Z,12.30
2023-05-11T21:52:28.165Z,12.40
2023-05-11T21:54:56.325Z,12.40
2023-05-11T21:57:24.522Z,12.30
2023-05-11T21:59:53.992Z,12.40
2023-05-11T22:02:22.538Z,12.40
2023-05-11T22:04:50.673Z,12.40
2023-05-11T22:07:19.860Z,12.40
2023-05-11T22:09:47.985Z,12.40
2023-05-11T22:12:16.291Z,12.40
2023-05-11T22:14:44.480Z,12.40
2023-05-11T22:17:13.942Z,12.40
2023-05-11T22:19:42.191Z,12.40
2023-05-11T22:22:10.341Z,12.40
2023-05-11T22:24:38.468Z,12.30
2023-05-11T22:27:08.541Z,12.40
2023-05-11T22:29:36.738Z,12.40
2023-05-11T22:32:05.368Z,12.40
2023-05-11T22:34:35.157Z,12.30
2023-05-11T22:37:05.001Z,12.40
2023-05-11T22:39:33.252Z,12.30
2023-05-11T22:42:01.418Z,12.30
2023-05-11T22:44:29.589Z,12.40
2023-05-11T22:46:59.174Z,12.30
2023-05-11T22:49:28.447Z,12.30
2023-05-11T22:51:59.570Z,12.30
2023-05-11T22:54:28.148Z,12.30
2023-05-11T22:56:57.312Z,12.30
2023-05-11T22:59:25.493Z,12.30
2023-05-11T23:01:55.202Z,12.30
2023-05-11T23:04:23.331Z,12.30
2023-05-11T23:06:51.480Z,12.30
2023-05-11T23:09:21.097Z,12.30
2023-05-11T23:11:49.280Z,12.30
2023-05-11T23:14:17.440Z,12.30
2023-05-11T23:16:45.830Z,12.30
2023-05-11T23:19:14.042Z,12.30
2023-05-11T23:21:42.371Z,12.30
2023-05-11T23:24:10.497Z,12.30
2023-05-11T23:26:40.019Z,12.30
2023-05-11T23:29:08.435Z,12.30
2023-05-11T23:31:36.762Z,12.30
2023-05-11T23:34:04.965Z,12.30
2023-05-11T23:36:33.560Z,12.30
2023-05-11T23:39:01.674Z,12.30
2023-05-11T23:41:29.782Z,12.30
2023-05-11T23:43:59.811Z,12.30
2023-05-11T23:46:28.327Z,12.30
2023-05-11T23:48:56.773Z,12.30
2023-05-11T23:51:24.992Z,12.30
2023-05-11T23:53:53.145Z,12.20
2023-05-11T23:56:21.538Z,12.30
2023-05-11T23:58:50.416Z,12.30
